Time,TemperatureF,DewpointF,PressureIn,WindDirection,WindDirectionDegrees,WindSpeedMPH,WindSpeedGustMPH,Humidity,HourlyPrecipIn,Conditions,Clouds,dailyrainin,SoftwareType,DateUTC
2013-06-23 00:01:00,77.0,71.1,30.19,SSE,160,7.0,9.0,82,0.00,,SKC,0.75,VWS V13.00,2013-06-23 04:01:00,
2013-06-23 00:06:00,76.9,71.0,30.19,South,171,6.0,11.0,82,0.00,,SKC,0.00,VWS V13.00,2013-06-23 04:06:00,
2013-06-23 00:11:00,76.9,71.0,30.18,SSE,154,2.0,11.0,82,0.00,,SKC,0.00,VWS V13.00,2013-06-23 04:11:00,
2013-06-23 00:16:00,76.9,71.0,30.19,South,178,5.0,10.0,82,0.00,,SKC,0.00,VWS V13.00,2013-06-23 04:16:00,
2013-06-23 00:21:00,76.9,71.0,30.19,South,175,10.0,12.0,82,0.00,,SKC,0.00,VWS V13.00,2013-06-23 04:21:00,
2013-06-23 00:26:00,76.9,71.0,30.19,SW,216,6.0,13.0,82,0.00,,SKC,0.00,VWS V13.00,2013-06-23 04:26:00,
2013-06-23 00:31:00,76.9,71.0,30.19,SSE,167,9.0,12.0,82,0.00,,SKC,0.00,VWS V13.00,2013-06-23 04:31:00,
2013-06-23 00:36:00,76.9,71.0,30.18,South,181,10.0,11.0,82,0.00,,SKC,0.00,VWS V13.00,2013-06-23 04:36:00,
2013-06-23 00:41:00,77.0,71.1,30.19,SSE,164,6.0,14.0,82,0.00,,SKC,0.00,VWS V13.00,2013-06-23 04:41:00,
2013-06-23 00:46:00,77.0,71.1,30.18,SSE,162,5.0,13.0,82,0.00,,SKC,0.00,VWS V13.00,2013-06-23 04:46:00,
2013-06-23 00:51:00,77.0,71.1,30.18,SSW,208,3.0,12.0,82,0.00,,SKC,0.00,VWS V13.00,2013-06-23 04:51:00,
2013-06-23 00:56:00,77.0,71.1,30.18,SSW,194,0.0,10.0,82,0.00,,SKC,0.00,VWS V13.00,2013-06-23 04:56:00,
2013-06-23 01:01:00,77.0,71.1,30.18,SE,145,2.0,8.0,82,0.00,,SKC,0.00,VWS V13.00,2013-06-23 05:01:00,
2013-06-23 01:06:00,77.1,71.2,30.18,South,175,6.0,9.0,82,0.00,,SKC,0.00,VWS V13.00,2013-06-23 05:06:00,
2013-06-23 01:11:00,77.1,71.2,30.18,South,187,7.0,14.0,82,0.00,,SKC,0.00,VWS V13.00,2013-06-23 05:11:00,
2013-06-23 01:16:00,77.1,71.2,30.18,SSW,199,4.0,10.0,82,0.00,,SKC,0.00,VWS V13.00,2013-06-23 05:16:00,
2013-06-23 01:21:00,77.1,71.2,30.18,South,191,5.0,12.0,82,0.00,,SKC,0.00,VWS V13.00,2013-06-23 05:21:00,
2013-06-23 01:26:00,77.1,71.2,30.18,South,188,3.0,9.0,82,0.00,,SKC,0.00,VWS V13.00,2013-06-23 05:26:00,
2013-06-23 01:31:00,77.1,71.2,30.18,SSW,196,4.0,10.0,82,0.00,,SKC,0.00,VWS V13.00,2013-06-23 05:31:00,
2013-06-23 01:36:00,77.1,71.2,30.18,SSW,209,1.0,11.0,82,0.00,,SKC,0.00,VWS V13.00,2013-06-23 05:36:00,
2013-06-23 01:41:00,77.2,71.3,30.18,SSW,201,3.0,10.0,82,0.00,,SKC,0.00,VWS V13.00,2013-06-23 05:41:00,
2013-06-23 01:46:00,77.2,71.3,30.18,SSW,207,6.0,9.0,82,0.00,,SKC,0.00,VWS V13.00,2013-06-23 05:46:00,
2013-06-23 01:51:00,77.2,71.3,30.18,South,172,5.0,9.0,82,0.00,,SKC,0.00,VWS V13.00,2013-06-23 05:51:00,
2013-06-23 01:56:00,77.2,71.3,30.18,SSW,200,4.0,8.0,82,0.00,,SKC,0.00,VWS V13.00,2013-06-23 05:56:00,
2013-06-23 02:01:00,77.2,71.3,30.18,SSW,196,3.0,7.0,82,0.00,,SKC,0.00,VWS V13.00,2013-06-23 06:01:00,
2013-06-23 02:06:00,77.2,71.3,30.18,SW,234,1.0,6.0,82,0.00,,SKC,0.00,VWS V13.00,2013-06-23 06:06:00,
2013-06-23 02:11:00,77.1,71.5,30.18,SSW,192,4.0,7.0,83,0.00,,SKC,0.00,VWS V13.00,2013-06-23 06:11:00,
2013-06-23 02:16:00,77.1,71.2,30.18,South,179,0.0,7.0,82,0.00,,SKC,0.00,VWS V13.00,2013-06-23 06:16:00,
2013-06-23 02:21:00,77.1,71.5,30.18,South,187,4.0,7.0,83,0.00,,SKC,0.00,VWS V13.00,2013-06-23 06:21:00,
2013-06-23 02:26:00,77.0,71.4,30.18,SSW,195,4.0,7.0,83,0.00,,SKC,0.00,VWS V13.00,2013-06-23 06:26:00,
2013-06-23 02:31:00,77.0,71.4,30.18,South,182,4.0,8.0,83,0.00,,SKC,0.00,VWS V13.00,2013-06-23 06:31:00,
2013-06-23 02:36:00,77.0,71.4,30.18,South,178,5.0,8.0,83,0.00,,SKC,0.00,VWS V13.00,2013-06-23 06:36:00,
2013-06-23 02:41:00,77.0,71.4,30.18,SSW,209,6.0,6.0,83,0.00,,SKC,0.00,VWS V13.00,2013-06-23 06:41:00,
2013-06-23 02:46:00,76.9,71.3,30.19,SW,219,5.0,7.0,83,0.00,,SKC,0.00,VWS V13.00,2013-06-23 06:46:00,
2013-06-23 02:51:00,76.9,71.3,30.18,SW,214,3.0,5.0,83,0.00,,SKC,0.00,VWS V13.00,2013-06-23 06:51:00,
2013-06-23 02:56:00,76.9,71.3,30.18,SW,228,0.0,5.0,83,0.00,,SKC,0.00,VWS V13.00,2013-06-23 06:56:00,
2013-06-23 03:01:00,76.8,71.2,30.19,SSW,208,3.0,5.0,83,0.00,,SKC,0.00,VWS V13.00,2013-06-23 07:01:00,
2013-06-23 03:06:00,76.7,71.2,30.19,SW,214,3.0,4.0,83,0.00,,SKC,0.00,VWS V13.00,2013-06-23 07:06:00,
2013-06-23 03:11:00,76.7,71.2,30.19,SSW,200,2.0,5.0,83,0.00,,SKC,0.00,VWS V13.00,2013-06-23 07:11:00,
2013-06-23 03:16:00,76.7,71.2,30.19,SSW,213,0.0,4.0,83,0.00,,SKC,0.00,VWS V13.00,2013-06-23 07:16:00,
2013-06-23 03:21:00,76.6,71.1,30.19,SW,216,3.0,4.0,83,0.00,,SKC,0.00,VWS V13.00,2013-06-23 07:21:00,
2013-06-23 03:26:00,76.6,71.1,30.18,South,186,6.0,6.0,83,0.00,,SKC,0.00,VWS V13.00,2013-06-23 07:26:00,
2013-06-23 03:31:00,76.6,71.1,30.18,SW,221,2.0,4.0,83,0.00,,SKC,0.00,VWS V13.00,2013-06-23 07:31:00,
2013-06-23 03:36:00,76.5,71.0,30.18,SSW,205,1.0,5.0,83,0.00,,SKC,0.00,VWS V13.00,2013-06-23 07:36:00,
2013-06-23 03:41:00,76.5,71.0,30.18,SSW,197,3.0,5.0,83,0.00,,SKC,0.00,VWS V13.00,2013-06-23 07:41:00,
2013-06-23 03:46:00,76.5,71.0,30.19,SSW,201,0.0,5.0,83,0.00,,SKC,0.00,VWS V13.00,2013-06-23 07:46:00,
2013-06-23 03:51:00,76.5,71.0,30.19,SW,227,5.0,6.0,83,0.00,,SKC,0.00,VWS V13.00,2013-06-23 07:51:00,
2013-06-23 03:56:00,76.5,71.0,30.19,SSW,197,2.0,5.0,83,0.00,,SKC,0.00,VWS V13.00,2013-06-23 07:56:00,
2013-06-23 04:01:00,76.5,71.0,30.18,SSW,213,3.0,6.0,83,0.00,,SKC,0.00,VWS V13.00,2013-06-23 08:01:00,
2013-06-23 04:06:00,76.5,71.0,30.18,SW,221,4.0,5.0,83,0.00,,SKC,0.00,VWS V13.00,2013-06-23 08:06:00,
2013-06-23 04:11:00,76.5,71.0,30.18,SSW,194,0.0,5.0,83,0.00,,SKC,0.00,VWS V13.00,2013-06-23 08:11:00,
2013-06-23 04:16:00,76.4,70.9,30.18,SSW,200,3.0,5.0,83,0.00,,SKC,0.00,VWS V13.00,2013-06-23 08:16:00,
2013-06-23 04:21:00,76.4,70.9,30.18,SSW,213,4.0,4.0,83,0.00,,SKC,0.00,VWS V13.00,2013-06-23 08:21:00,
2013-06-23 04:26:00,76.4,70.9,30.18,SW,229,4.0,5.0,83,0.00,,SKC,0.00,VWS V13.00,2013-06-23 08:26:00,
2013-06-23 04:31:00,76.4,70.9,30.18,SW,224,1.0,6.0,83,0.00,,SKC,0.00,VWS V13.00,2013-06-23 08:31:00,
2013-06-23 04:36:00,76.4,70.9,30.18,SW,216,2.0,5.0,83,0.00,,SKC,0.00,VWS V13.00,2013-06-23 08:36:00,
2013-06-23 04:41:00,76.3,70.8,30.18,SW,236,0.0,5.0,83,0.00,,SKC,0.00,VWS V13.00,2013-06-23 08:41:00,
2013-06-23 04:46:00,76.2,70.7,30.19,SW,232,3.0,4.0,83,0.00,,SKC,0.00,VWS V13.00,2013-06-23 08:46:00,
2013-06-23 04:51:00,76.2,70.7,30.19,SW,232,0.0,4.0,83,0.00,,SKC,0.00,VWS V13.00,2013-06-23 08:51:00,
2013-06-23 04:56:00,76.1,70.6,30.19,SW,215,4.0,5.0,83,0.00,,SKC,0.00,VWS V13.00,2013-06-23 08:56:00,
2013-06-23 05:01:00,76.1,70.6,30.19,SW,231,1.0,4.0,83,0.00,,SKC,0.00,VWS V13.00,2013-06-23 09:01:00,
2013-06-23 05:06:00,76.0,70.5,30.19,SW,217,1.0,4.0,83,0.00,,SKC,0.00,VWS V13.00,2013-06-23 09:06:00,
2013-06-23 05:11:00,75.9,70.4,30.19,SW,221,3.0,5.0,83,0.00,,SKC,0.00,VWS V13.00,2013-06-23 09:11:00,
2013-06-23 05:16:00,75.9,70.4,30.19,SSW,211,0.0,4.0,83,0.00,,SKC,0.00,VWS V13.00,2013-06-23 09:16:00,
2013-06-23 05:21:00,75.9,70.4,30.19,SSW,212,0.0,4.0,83,0.00,,SKC,0.00,VWS V13.00,2013-06-23 09:21:00,
2013-06-23 05:26:00,75.8,70.3,30.19,SSW,212,0.0,3.0,83,0.00,,SKC,0.00,VWS V13.00,2013-06-23 09:26:00,
2013-06-23 05:31:00,75.8,70.3,30.19,SSW,205,2.0,3.0,83,0.00,,SKC,0.00,VWS V13.00,2013-06-23 09:31:00,
2013-06-23 05:36:00,75.7,70.2,30.19,SSW,202,2.0,2.0,83,0.00,,SKC,0.00,VWS V13.00,2013-06-23 09:36:00,
2013-06-23 05:41:00,75.6,70.1,30.19,SSW,202,0.0,1.0,83,0.00,,SKC,0.00,VWS V13.00,2013-06-23 09:41:00,
2013-06-23 05:46:00,75.6,70.1,30.20,SSW,202,1.0,1.0,83,0.00,,SKC,0.00,VWS V13.00,2013-06-23 09:46:00,
2013-06-23 05:51:00,75.7,70.2,30.20,SSW,202,0.0,2.0,83,0.00,,SKC,0.00,VWS V13.00,2013-06-23 09:51:00,
2013-06-23 05:56:00,75.6,70.1,30.20,SSW,202,0.0,0.0,83,0.00,,SKC,0.00,VWS V13.00,2013-06-23 09:56:00,
2013-06-23 06:01:00,75.5,70.0,30.20,SSW,202,0.0,0.0,83,0.00,,SKC,0.00,VWS V13.00,2013-06-23 10:01:00,
2013-06-23 06:06:00,75.3,69.8,30.20,SSW,202,0.0,1.0,83,0.00,,SKC,0.00,VWS V13.00,2013-06-23 10:06:00,
2013-06-23 06:11:00,75.2,69.7,30.20,SSW,202,0.0,0.0,83,0.00,,SKC,0.00,VWS V13.00,2013-06-23 10:11:00,
2013-06-23 06:16:00,75.1,69.6,30.20,SSW,202,0.0,0.0,83,0.00,,SKC,0.00,VWS V13.00,2013-06-23 10:16:00,
2013-06-23 06:21:00,75.0,69.5,30.20,SSW,202,0.0,0.0,83,0.00,,SKC,0.00,VWS V13.00,2013-06-23 10:21:00,
2013-06-23 06:26:00,74.9,69.4,30.20,SSW,202,0.0,0.0,83,0.00,,SKC,0.00,VWS V13.00,2013-06-23 10:26:00,
2013-06-23 06:31:00,74.8,69.3,30.20,SSW,202,0.0,0.0,83,0.00,,SKC,0.00,VWS V13.00,2013-06-23 10:31:00,
2013-06-23 06:36:00,74.8,69.3,30.20,SE,141,0.0,4.0,83,0.00,,SKC,0.00,VWS V13.00,2013-06-23 10:36:00,
2013-06-23 06:41:00,75.1,69.6,30.21,SE,142,0.0,4.0,83,0.00,,SKC,0.00,VWS V13.00,2013-06-23 10:41:00,
2013-06-23 06:46:00,75.4,70.2,30.21,SE,142,0.0,2.0,84,0.00,,SKC,0.00,VWS V13.00,2013-06-23 10:46:00,
2013-06-23 06:51:00,75.8,70.6,30.20,SSW,194,2.0,4.0,84,0.00,,SKC,0.00,VWS V13.00,2013-06-23 10:51:00,
2013-06-23 06:56:00,76.1,70.6,30.20,SSW,196,1.0,4.0,83,0.00,,SKC,0.00,VWS V13.00,2013-06-23 10:56:00,
2013-06-23 07:01:00,76.3,71.1,30.21,South,170,2.0,5.0,84,0.00,,SKC,0.00,VWS V13.00,2013-06-23 11:01:00,
2013-06-23 07:06:00,76.3,71.1,30.21,South,178,4.0,4.0,84,0.00,,SKC,0.00,VWS V13.00,2013-06-23 11:06:00,
2013-06-23 07:11:00,76.4,71.2,30.20,SSE,167,1.0,4.0,84,0.00,,SKC,0.00,VWS V13.00,2013-06-23 11:11:00,
2013-06-23 07:16:00,76.5,71.3,30.21,SSE,167,0.0,2.0,84,0.00,,SKC,0.00,VWS V13.00,2013-06-23 11:16:00,
2013-06-23 07:21:00,76.6,71.4,30.21,SSE,167,0.0,4.0,84,0.00,,SKC,0.00,VWS V13.00,2013-06-23 11:21:00,
2013-06-23 07:26:00,76.7,71.2,30.21,South,169,2.0,4.0,83,0.00,,SKC,0.00,VWS V13.00,2013-06-23 11:26:00,
2013-06-23 07:31:00,76.9,71.3,30.21,South,171,0.0,5.0,83,0.00,,SKC,0.00,VWS V13.00,2013-06-23 11:31:00,
2013-06-23 07:36:00,77.0,71.4,30.21,SSE,155,2.0,6.0,83,0.00,,SKC,0.00,VWS V13.00,2013-06-23 11:36:00,
2013-06-23 07:41:00,77.1,71.5,30.21,SSE,164,2.0,5.0,83,0.00,,SKC,0.00,VWS V13.00,2013-06-23 11:41:00,
2013-06-23 07:46:00,77.3,71.7,30.21,SSE,150,1.0,5.0,83,0.00,,SKC,0.00,VWS V13.00,2013-06-23 11:46:00,
2013-06-23 07:51:00,77.5,71.9,30.21,South,173,4.0,6.0,83,0.00,,SKC,0.00,VWS V13.00,2013-06-23 11:51:00,
2013-06-23 07:56:00,77.7,72.1,30.21,South,175,4.0,6.0,83,0.00,,SKC,0.00,VWS V13.00,2013-06-23 11:56:00,
2013-06-23 08:01:00,77.9,72.3,30.22,SSW,197,4.0,7.0,83,0.00,,SKC,0.00,VWS V13.00,2013-06-23 12:01:00,
2013-06-23 08:06:00,78.1,72.5,30.22,SSE,163,2.0,6.0,83,0.00,,SKC,0.00,VWS V13.00,2013-06-23 12:06:00,
2013-06-23 08:11:00,78.4,72.8,30.22,SSE,162,0.0,5.0,83,0.00,,SKC,0.00,VWS V13.00,2013-06-23 12:11:00,
2013-06-23 08:16:00,78.7,73.1,30.22,SSE,159,1.0,6.0,83,0.00,,SKC,0.00,VWS V13.00,2013-06-23 12:16:00,
2013-06-23 08:21:00,78.9,73.3,30.22,South,169,4.0,4.0,83,0.00,,SKC,0.00,VWS V13.00,2013-06-23 12:21:00,
2013-06-23 08:26:00,79.1,73.5,30.22,SSW,194,4.0,5.0,83,0.00,,SKC,0.00,VWS V13.00,2013-06-23 12:26:00,
2013-06-23 08:31:00,79.2,73.6,30.23,SSE,151,1.0,5.0,83,0.00,,SKC,0.00,VWS V13.00,2013-06-23 12:31:00,
2013-06-23 08:36:00,79.4,73.8,30.23,SSE,161,5.0,6.0,83,0.00,,SKC,0.00,VWS V13.00,2013-06-23 12:36:00,
2013-06-23 08:41:00,79.3,73.7,30.23,SE,146,0.0,7.0,83,0.00,,SKC,0.00,VWS V13.00,2013-06-23 12:41:00,
2013-06-23 08:46:00,79.3,73.7,30.23,SSE,155,2.0,5.0,83,0.00,,SKC,0.00,VWS V13.00,2013-06-23 12:46:00,
2013-06-23 08:51:00,79.4,73.8,30.23,SSE,162,1.0,6.0,83,0.00,,SKC,0.00,VWS V13.00,2013-06-23 12:51:00,
2013-06-23 08:56:00,79.4,73.8,30.23,SSE,161,0.0,4.0,83,0.00,,SKC,0.00,VWS V13.00,2013-06-23 12:56:00,
2013-06-23 09:01:00,79.5,73.9,30.23,South,173,1.0,5.0,83,0.00,,SKC,0.00,VWS V13.00,2013-06-23 13:01:00,
2013-06-23 09:06:00,79.6,74.0,30.23,South,180,4.0,6.0,83,0.00,,SKC,0.00,VWS V13.00,2013-06-23 13:06:00,
2013-06-23 09:11:00,79.9,74.3,30.24,SSE,153,4.0,6.0,83,0.00,,SKC,0.00,VWS V13.00,2013-06-23 13:11:00,
2013-06-23 09:16:00,80.2,74.6,30.24,SSW,201,1.0,5.0,83,0.00,,SKC,0.00,VWS V13.00,2013-06-23 13:16:00,
2013-06-23 09:21:00,80.6,75.0,30.23,SSW,202,6.0,7.0,83,0.00,,SKC,0.00,VWS V13.00,2013-06-23 13:21:00,
2013-06-23 09:26:00,80.6,75.0,30.23,SSE,150,4.0,5.0,83,0.00,,SKC,0.00,VWS V13.00,2013-06-23 13:26:00,
2013-06-23 09:31:00,80.7,75.1,30.23,South,183,3.0,7.0,83,0.00,,SKC,0.00,VWS V13.00,2013-06-23 13:31:00,
2013-06-23 09:36:00,80.3,74.7,30.23,South,181,1.0,7.0,83,0.00,,SKC,0.00,VWS V13.00,2013-06-23 13:36:00,
2013-06-23 09:41:00,80.6,75.0,30.23,SSW,207,0.0,4.0,83,0.00,,SKC,0.00,VWS V13.00,2013-06-23 13:41:00,
2013-06-23 09:46:00,80.8,75.2,30.23,South,186,5.0,7.0,83,0.00,,SKC,0.00,VWS V13.00,2013-06-23 13:46:00,
2013-06-23 09:51:00,80.9,75.3,30.23,South,188,3.0,7.0,83,0.00,,SKC,0.00,VWS V13.00,2013-06-23 13:51:00,
2013-06-23 09:56:00,80.6,74.6,30.23,SSE,165,5.0,7.0,82,0.00,,SKC,0.00,VWS V13.00,2013-06-23 13:56:00,
2013-06-23 10:02:00,80.3,74.7,30.22,SSW,196,0.0,6.0,83,0.00,,SKC,0.00,VWS V13.00,2013-06-23 14:02:00,
2013-06-23 10:07:00,80.7,75.1,30.23,SSE,155,2.0,6.0,83,0.00,,SKC,0.00,VWS V13.00,2013-06-23 14:07:00,
2013-06-23 10:12:00,81.0,75.0,30.23,South,171,7.0,8.0,82,0.00,,SKC,0.00,VWS V13.00,2013-06-23 14:12:00,
2013-06-23 10:17:00,80.8,74.8,30.23,South,183,3.0,9.0,82,0.00,,SKC,0.00,VWS V13.00,2013-06-23 14:17:00,
2013-06-23 10:22:00,81.1,75.1,30.23,South,173,4.0,5.0,82,0.00,,SKC,0.00,VWS V13.00,2013-06-23 14:22:00,
2013-06-23 10:27:00,81.2,75.2,30.24,South,190,4.0,6.0,82,0.00,,SKC,0.00,VWS V13.00,2013-06-23 14:27:00,
2013-06-23 10:32:00,81.6,75.6,30.24,SE,146,5.0,8.0,82,0.00,,SKC,0.00,VWS V13.00,2013-06-23 14:32:00,
2013-06-23 10:37:00,81.7,75.7,30.24,SSE,151,2.0,10.0,82,0.00,,SKC,0.00,VWS V13.00,2013-06-23 14:37:00,
2013-06-23 10:42:00,82.0,76.0,30.24,SSW,208,1.0,8.0,82,0.00,,SKC,0.00,VWS V13.00,2013-06-23 14:42:00,
2013-06-23 10:47:00,82.2,76.2,30.24,SSE,167,6.0,9.0,82,0.00,,SKC,0.00,VWS V13.00,2013-06-23 14:47:00,
2013-06-23 10:52:00,82.4,76.4,30.24,SSE,167,2.0,7.0,82,0.00,,SKC,0.00,VWS V13.00,2013-06-23 14:52:00,
2013-06-23 10:57:00,82.5,76.4,30.24,SE,142,0.0,7.0,82,0.00,,SKC,0.00,VWS V13.00,2013-06-23 14:57:00,
2013-06-23 11:02:00,82.9,76.8,30.24,SSE,153,4.0,7.0,82,0.00,,SKC,0.00,VWS V13.00,2013-06-23 15:02:00,
2013-06-23 11:07:00,83.0,76.6,30.24,South,184,3.0,3.0,81,0.00,,SKC,0.00,VWS V13.00,2013-06-23 15:07:00,
2013-06-23 11:12:00,83.0,76.6,30.24,SE,132,2.0,4.0,81,0.00,,SKC,0.00,VWS V13.00,2013-06-23 15:12:00,
2013-06-23 11:17:00,82.9,76.5,30.24,SSE,154,4.0,4.0,81,0.00,,SKC,0.00,VWS V13.00,2013-06-23 15:17:00,
2013-06-23 11:22:00,82.8,76.4,30.24,ESE,117,0.0,0.0,81,0.00,,SKC,0.00,VWS V13.00,2013-06-23 15:22:00,
2013-06-23 11:27:00,82.6,76.2,30.24,SSW,198,3.0,4.0,81,0.00,,SKC,0.00,VWS V13.00,2013-06-23 15:27:00,
2013-06-23 11:32:00,82.4,76.0,30.24,SSW,208,1.0,5.0,81,0.01,,SKC,0.01,VWS V13.00,2013-06-23 15:32:00,
2013-06-23 11:38:00,81.6,75.2,30.25,South,175,4.0,6.0,81,0.01,,SKC,0.01,VWS V13.00,2013-06-23 15:38:00,
2013-06-23 11:43:00,80.8,74.4,30.25,SSE,164,5.0,8.0,81,0.01,,SKC,0.01,VWS V13.00,2013-06-23 15:43:00,
2013-06-23 11:48:00,80.2,73.8,30.24,SW,216,7.0,9.0,81,0.01,,SKC,0.01,VWS V13.00,2013-06-23 15:48:00,
2013-06-23 11:53:00,79.7,73.4,30.24,SW,215,0.0,6.0,81,0.01,,SKC,0.01,VWS V13.00,2013-06-23 15:53:00,
2013-06-23 11:58:00,79.3,73.3,30.24,SW,219,0.0,5.0,82,0.01,,SKC,0.01,VWS V13.00,2013-06-23 15:58:00,
2013-06-23 12:03:00,79.2,73.2,30.24,SSW,205,2.0,7.0,82,0.01,,SKC,0.01,VWS V13.00,2013-06-23 16:03:00,
2013-06-23 12:08:00,79.3,73.3,30.24,SSE,164,5.0,7.0,82,0.01,,SKC,0.01,VWS V13.00,2013-06-23 16:08:00,
2013-06-23 12:13:00,79.2,73.2,30.24,SSE,162,5.0,8.0,82,0.01,,SKC,0.01,VWS V13.00,2013-06-23 16:13:00,
2013-06-23 12:18:00,79.2,73.2,30.24,South,175,2.0,7.0,82,0.01,,SKC,0.01,VWS V13.00,2013-06-23 16:18:00,
2013-06-23 12:23:00,79.2,73.2,30.24,SSE,168,4.0,6.0,82,0.01,,SKC,0.01,VWS V13.00,2013-06-23 16:23:00,
2013-06-23 12:28:00,79.3,73.3,30.23,SE,131,2.0,5.0,82,0.01,,SKC,0.01,VWS V13.00,2013-06-23 16:28:00,
2013-06-23 12:33:00,79.6,73.6,30.23,South,183,3.0,3.0,82,0.00,,SKC,0.01,VWS V13.00,2013-06-23 16:33:00,
2013-06-23 12:38:00,80.1,74.1,30.23,SE,136,0.0,2.0,82,0.00,,SKC,0.01,VWS V13.00,2013-06-23 16:38:00,
2013-06-23 12:43:00,80.5,74.5,30.23,South,176,0.0,4.0,82,0.00,,SKC,0.01,VWS V13.00,2013-06-23 16:43:00,
2013-06-23 12:48:00,81.1,74.7,30.23,SE,146,4.0,8.0,81,0.00,,SKC,0.01,VWS V13.00,2013-06-23 16:48:00,
2013-06-23 12:53:00,81.2,74.8,30.23,South,182,2.0,9.0,81,0.00,,SKC,0.01,VWS V13.00,2013-06-23 16:53:00,
2013-06-23 12:57:00,81.1,74.7,30.23,South,179,5.0,8.0,81,0.00,,SKC,0.01,VWS V13.00,2013-06-23 16:57:00,
2013-06-23 13:03:00,80.9,74.5,30.23,SSW,197,5.0,7.0,81,0.00,,SKC,0.01,VWS V13.00,2013-06-23 17:03:00,
2013-06-23 13:08:00,81.0,74.6,30.23,South,173,6.0,7.0,81,0.00,,SKC,0.01,VWS V13.00,2013-06-23 17:08:00,
2013-06-23 13:13:00,80.9,74.5,30.23,South,171,7.0,8.0,81,0.00,,SKC,0.01,VWS V13.00,2013-06-23 17:13:00,
2013-06-23 13:18:00,80.9,74.5,30.23,South,173,6.0,10.0,81,0.00,,SKC,0.01,VWS V13.00,2013-06-23 17:18:00,
2013-06-23 13:23:00,81.1,74.7,30.23,SSE,167,5.0,8.0,81,0.00,,SKC,0.01,VWS V13.00,2013-06-23 17:23:00,
2013-06-23 13:28:00,81.3,74.9,30.23,SSE,153,5.0,7.0,81,0.00,,SKC,0.01,VWS V13.00,2013-06-23 17:28:00,
2013-06-23 13:33:00,81.3,74.9,30.23,SSE,159,5.0,6.0,81,0.00,,SKC,0.01,VWS V13.00,2013-06-23 17:33:00,
2013-06-23 13:38:00,81.1,74.7,30.23,SSW,205,5.0,6.0,81,0.00,,SKC,0.01,VWS V13.00,2013-06-23 17:38:00,
2013-06-23 13:43:00,80.8,74.4,30.23,SE,142,4.0,11.0,81,0.00,,SKC,0.01,VWS V13.00,2013-06-23 17:43:00,
2013-06-23 13:48:00,80.6,74.2,30.23,SSE,156,6.0,10.0,81,0.00,,SKC,0.01,VWS V13.00,2013-06-23 17:48:00,
2013-06-23 13:53:00,80.7,74.3,30.23,SSW,194,5.0,10.0,81,0.00,,SKC,0.01,VWS V13.00,2013-06-23 17:53:00,
2013-06-23 13:58:00,80.9,74.5,30.22,SSW,200,4.0,10.0,81,0.00,,SKC,0.01,VWS V13.00,2013-06-23 17:58:00,
2013-06-23 14:03:00,81.1,74.7,30.22,SSW,200,5.0,12.0,81,0.00,,SKC,0.01,VWS V13.00,2013-06-23 18:03:00,
2013-06-23 14:08:00,81.4,75.0,30.22,SE,128,2.0,8.0,81,0.00,,SKC,0.01,VWS V13.00,2013-06-23 18:08:00,
2013-06-23 14:13:00,81.8,75.4,30.22,SSE,159,4.0,12.0,81,0.00,,SKC,0.01,VWS V13.00,2013-06-23 18:13:00,
2013-06-23 14:18:00,82.0,75.2,30.22,SSW,199,12.0,12.0,80,0.00,,SKC,0.01,VWS V13.00,2013-06-23 18:18:00,
2013-06-23 14:23:00,82.0,75.2,30.22,SSW,193,7.0,7.0,80,0.00,,SKC,0.01,VWS V13.00,2013-06-23 18:23:00,
2013-06-23 14:28:00,82.2,75.4,30.22,South,188,1.0,9.0,80,0.00,,SKC,0.01,VWS V13.00,2013-06-23 18:28:00,
2013-06-23 14:33:00,81.9,75.1,30.22,SSE,168,2.0,6.0,80,0.00,,SKC,0.01,VWS V13.00,2013-06-23 18:33:00,
2013-06-23 14:38:00,81.8,75.0,30.22,SE,140,6.0,10.0,80,0.00,,SKC,0.01,VWS V13.00,2013-06-23 18:38:00,
2013-06-23 14:43:00,81.8,75.0,30.22,SSW,198,11.0,11.0,80,0.00,,SKC,0.01,VWS V13.00,2013-06-23 18:43:00,
2013-06-23 14:48:00,81.7,74.9,30.22,South,173,8.0,12.0,80,0.00,,SKC,0.01,VWS V13.00,2013-06-23 18:48:00,
2013-06-23 14:53:00,81.7,74.9,30.22,SSW,212,2.0,9.0,80,0.00,,SKC,0.01,VWS V13.00,2013-06-23 18:53:00,
2013-06-23 14:58:00,81.8,75.0,30.22,SSE,165,5.0,9.0,80,0.00,,SKC,0.01,VWS V13.00,2013-06-23 18:58:00,
2013-06-23 15:03:00,81.9,75.1,30.22,SSE,161,7.0,8.0,80,0.00,,SKC,0.01,VWS V13.00,2013-06-23 19:03:00,
2013-06-23 15:08:00,82.0,75.2,30.22,South,187,0.0,8.0,80,0.00,,SKC,0.01,VWS V13.00,2013-06-23 19:08:00,
2013-06-23 15:13:00,82.1,75.3,30.21,South,179,1.0,10.0,80,0.00,,SKC,0.01,VWS V13.00,2013-06-23 19:13:00,
2013-06-23 15:18:00,82.1,75.3,30.21,SE,134,4.0,9.0,80,0.00,,SKC,0.01,VWS V13.00,2013-06-23 19:18:00,
2013-06-23 15:23:00,82.0,75.2,30.21,SSE,161,7.0,8.0,80,0.00,,SKC,0.01,VWS V13.00,2013-06-23 19:23:00,
2013-06-23 15:28:00,81.7,74.9,30.21,South,179,10.0,11.0,80,0.00,,SKC,0.01,VWS V13.00,2013-06-23 19:28:00,
2013-06-23 15:33:00,81.5,74.7,30.21,South,173,7.0,10.0,80,0.00,,SKC,0.01,VWS V13.00,2013-06-23 19:33:00,
2013-06-23 15:38:00,81.4,74.6,30.21,ESE,116,8.0,12.0,80,0.00,,SKC,0.01,VWS V13.00,2013-06-23 19:38:00,
2013-06-23 15:43:00,81.3,74.5,30.21,SSE,167,8.0,8.0,80,0.00,,SKC,0.01,VWS V13.00,2013-06-23 19:43:00,
2013-06-23 15:48:00,81.2,74.4,30.21,SE,129,11.0,11.0,80,0.00,,SKC,0.01,VWS V13.00,2013-06-23 19:48:00,
2013-06-23 15:53:00,81.1,74.3,30.21,ESE,120,4.0,9.0,80,0.00,,SKC,0.01,VWS V13.00,2013-06-23 19:53:00,
2013-06-23 15:58:00,81.4,74.6,30.21,SE,146,8.0,10.0,80,0.00,,SKC,0.01,VWS V13.00,2013-06-23 19:58:00,
2013-06-23 16:03:00,81.5,74.7,30.22,SSW,192,3.0,8.0,80,0.00,,SKC,0.01,VWS V13.00,2013-06-23 20:03:00,
2013-06-23 16:08:00,81.4,74.6,30.22,South,169,4.0,9.0,80,0.00,,SKC,0.01,VWS V13.00,2013-06-23 20:08:00,
2013-06-23 16:13:00,81.2,74.4,30.22,South,179,5.0,9.0,80,0.00,,SKC,0.01,VWS V13.00,2013-06-23 20:13:00,
2013-06-23 16:18:00,80.9,74.2,30.21,South,173,6.0,9.0,80,0.00,,SKC,0.01,VWS V13.00,2013-06-23 20:18:00,
2013-06-23 16:23:00,80.7,74.0,30.21,SE,131,9.0,9.0,80,0.00,,SKC,0.01,VWS V13.00,2013-06-23 20:23:00,
2013-06-23 16:28:00,80.5,73.8,30.21,South,176,5.0,7.0,80,0.00,,SKC,0.01,VWS V13.00,2013-06-23 20:28:00,
2013-06-23 16:33:00,80.2,73.5,30.21,South,178,8.0,10.0,80,0.00,,SKC,0.01,VWS V13.00,2013-06-23 20:33:00,
2013-06-23 16:38:00,80.1,73.4,30.20,SE,136,2.0,10.0,80,0.00,,SKC,0.01,VWS V13.00,2013-06-23 20:38:00,
2013-06-23 16:43:00,80.0,73.3,30.20,ESE,108,6.0,13.0,80,0.00,,SKC,0.01,VWS V13.00,2013-06-23 20:43:00,
2013-06-23 16:48:00,80.2,73.5,30.20,ESE,118,8.0,11.0,80,0.00,,SKC,0.01,VWS V13.00,2013-06-23 20:48:00,
2013-06-23 16:53:00,80.3,73.6,30.20,SE,140,4.0,8.0,80,0.00,,SKC,0.01,VWS V13.00,2013-06-23 20:53:00,
2013-06-23 16:58:00,80.3,73.6,30.20,SSW,206,5.0,12.0,80,0.00,,SKC,0.01,VWS V13.00,2013-06-23 20:58:00,
2013-06-23 17:03:00,80.4,73.7,30.20,SE,124,4.0,8.0,80,0.00,,SKC,0.01,VWS V13.00,2013-06-23 21:03:00,
2013-06-23 17:08:00,80.5,73.8,30.20,SE,140,4.0,12.0,80,0.00,,SKC,0.01,VWS V13.00,2013-06-23 21:08:00,
2013-06-23 17:13:00,80.5,73.8,30.21,SE,144,9.0,9.0,80,0.00,,SKC,0.01,VWS V13.00,2013-06-23 21:13:00,
2013-06-23 17:18:00,80.5,73.8,30.20,SSE,165,0.0,9.0,80,0.00,,SKC,0.01,VWS V13.00,2013-06-23 21:18:00,
2013-06-23 17:22:00,80.7,74.0,30.21,SSW,209,4.0,9.0,80,0.00,,SKC,0.01,VWS V13.00,2013-06-23 21:22:00,
2013-06-23 17:27:00,80.8,74.1,30.20,South,188,9.0,14.0,80,0.00,,SKC,0.01,VWS V13.00,2013-06-23 21:27:00,
2013-06-23 17:32:00,80.8,74.1,30.21,SE,136,4.0,6.0,80,0.00,,SKC,0.01,VWS V13.00,2013-06-23 21:32:00,
2013-06-23 17:37:00,80.7,74.0,30.21,SW,215,5.0,8.0,80,0.00,,SKC,0.01,VWS V13.00,2013-06-23 21:37:00,
2013-06-23 17:42:00,80.4,73.7,30.21,ESE,121,6.0,14.0,80,0.00,,SKC,0.01,VWS V13.00,2013-06-23 21:42:00,
2013-06-23 17:47:00,80.2,73.5,30.21,SSE,147,10.0,17.0,80,0.00,,SKC,0.01,VWS V13.00,2013-06-23 21:47:00,
2013-06-23 17:52:00,79.8,73.1,30.21,WSW,248,3.0,11.0,80,0.00,,SKC,0.02,VWS V13.00,2013-06-23 21:52:00,
2013-06-23 17:57:00,78.9,72.2,30.21,SE,146,4.0,7.0,80,0.03,,SKC,0.05,VWS V13.00,2013-06-23 21:57:00,
2013-06-23 18:02:00,78.2,71.5,30.21,SSE,166,2.0,8.0,80,0.04,,SKC,0.05,VWS V13.00,2013-06-23 22:02:00,
2013-06-23 18:07:00,77.6,70.9,30.21,SSE,165,8.0,8.0,80,0.05,,SKC,0.06,VWS V13.00,2013-06-23 22:07:00,
2013-06-23 18:12:00,77.5,71.2,30.22,SSE,167,4.0,7.0,81,0.06,,SKC,0.07,VWS V13.00,2013-06-23 22:12:00,
2013-06-23 18:17:00,77.5,71.2,30.22,SSW,198,8.0,8.0,81,0.06,,SKC,0.07,VWS V13.00,2013-06-23 22:17:00,
2013-06-23 18:22:00,77.6,71.3,30.22,SSE,156,7.0,8.0,81,0.06,,SKC,0.07,VWS V13.00,2013-06-23 22:22:00,
2013-06-23 18:27:00,77.6,71.3,30.22,SSW,195,0.0,2.0,81,0.06,,SKC,0.07,VWS V13.00,2013-06-23 22:27:00,
2013-06-23 18:32:00,77.7,71.4,30.22,SSW,205,2.0,4.0,81,0.06,,SKC,0.07,VWS V13.00,2013-06-23 22:32:00,
2013-06-23 18:37:00,77.8,71.5,30.22,SSW,202,0.0,3.0,81,0.06,,SKC,0.07,VWS V13.00,2013-06-23 22:37:00,
2013-06-23 18:42:00,77.8,71.5,30.21,South,178,1.0,2.0,81,0.07,,SKC,0.08,VWS V13.00,2013-06-23 22:42:00,
2013-06-23 18:47:00,77.9,71.6,30.21,South,186,0.0,0.0,81,0.07,,SKC,0.08,VWS V13.00,2013-06-23 22:47:00,
2013-06-23 18:52:00,77.9,71.6,30.21,South,183,0.0,0.0,81,0.07,,SKC,0.08,VWS V13.00,2013-06-23 22:52:00,
2013-06-23 18:57:00,77.9,71.6,30.20,South,175,0.0,4.0,81,0.07,,SKC,0.08,VWS V13.00,2013-06-23 22:57:00,
2013-06-23 19:02:00,77.9,71.6,30.20,SSE,163,0.0,5.0,81,0.04,,SKC,0.08,VWS V13.00,2013-06-23 23:02:00,
2013-06-23 19:07:00,78.0,71.7,30.20,South,173,1.0,5.0,81,0.03,,SKC,0.08,VWS V13.00,2013-06-23 23:07:00,
2013-06-23 19:12:00,78.0,71.7,30.20,South,173,4.0,6.0,81,0.02,,SKC,0.08,VWS V13.00,2013-06-23 23:12:00,
2013-06-23 19:17:00,78.0,71.7,30.20,South,173,2.0,7.0,81,0.01,,SKC,0.08,VWS V13.00,2013-06-23 23:17:00,
2013-06-23 19:22:00,78.0,71.7,30.20,SSE,166,5.0,7.0,81,0.01,,SKC,0.08,VWS V13.00,2013-06-23 23:22:00,
2013-06-23 19:27:00,77.9,71.6,30.20,SSE,163,0.0,1.0,81,0.01,,SKC,0.08,VWS V13.00,2013-06-23 23:27:00,
2013-06-23 19:32:00,78.0,71.7,30.20,SE,146,4.0,7.0,81,0.01,,SKC,0.08,VWS V13.00,2013-06-23 23:32:00,
2013-06-23 19:37:00,78.1,71.8,30.20,SSE,158,4.0,7.0,81,0.01,,SKC,0.08,VWS V13.00,2013-06-23 23:37:00,
2013-06-23 19:42:00,78.2,71.9,30.20,South,175,1.0,2.0,81,0.01,,SKC,0.08,VWS V13.00,2013-06-23 23:42:00,
2013-06-23 19:47:00,78.2,72.3,30.20,SE,139,2.0,5.0,82,0.00,,SKC,0.08,VWS V13.00,2013-06-23 23:47:00,
2013-06-23 19:52:00,78.3,72.4,30.20,SSW,206,2.0,7.0,82,0.00,,SKC,0.08,VWS V13.00,2013-06-23 23:52:00,
2013-06-23 19:57:00,78.4,72.4,30.20,SSE,156,7.0,7.0,82,0.00,,SKC,0.08,VWS V13.00,2013-06-23 23:57:00,
2013-06-23 20:02:00,78.3,72.4,30.20,SSE,162,5.0,7.0,82,0.00,,SKC,0.08,VWS V13.00,2013-06-24 00:02:00,
2013-06-23 20:07:00,78.2,72.3,30.19,South,171,6.0,12.0,82,0.00,,SKC,0.08,VWS V13.00,2013-06-24 00:07:00,
2013-06-23 20:12:00,78.1,72.2,30.19,South,177,9.0,9.0,82,0.00,,SKC,0.08,VWS V13.00,2013-06-24 00:12:00,
2013-06-23 20:17:00,78.0,72.1,30.19,South,182,5.0,8.0,82,0.00,,SKC,0.08,VWS V13.00,2013-06-24 00:17:00,
2013-06-23 20:22:00,78.0,72.1,30.19,SSE,156,4.0,10.0,82,0.00,,SKC,0.08,VWS V13.00,2013-06-24 00:22:00,
2013-06-23 20:27:00,78.0,72.1,30.19,SSE,167,4.0,11.0,82,0.00,,SKC,0.08,VWS V13.00,2013-06-24 00:27:00,
2013-06-23 20:32:00,78.0,72.1,30.19,SE,140,4.0,5.0,82,0.00,,SKC,0.08,VWS V13.00,2013-06-24 00:32:00,
2013-06-23 20:37:00,78.0,72.1,30.20,SE,139,6.0,8.0,82,0.00,,SKC,0.08,VWS V13.00,2013-06-24 00:37:00,
2013-06-23 20:42:00,78.1,72.2,30.20,SW,223,4.0,11.0,82,0.00,,SKC,0.08,VWS V13.00,2013-06-24 00:42:00,
2013-06-23 20:48:00,78.2,72.3,30.20,SSE,165,9.0,10.0,82,0.00,,SKC,0.08,VWS V13.00,2013-06-24 00:48:00,
2013-06-23 20:53:00,78.2,72.3,30.21,WSW,253,5.0,12.0,82,0.00,,SKC,0.08,VWS V13.00,2013-06-24 00:53:00,
2013-06-23 20:58:00,77.8,71.9,30.21,SSE,159,2.0,11.0,82,0.00,,SKC,0.08,VWS V13.00,2013-06-24 00:58:00,
2013-06-23 21:03:00,77.4,71.5,30.21,SE,146,7.0,13.0,82,0.00,,SKC,0.08,VWS V13.00,2013-06-24 01:03:00,
2013-06-23 21:08:00,77.4,71.5,30.21,SSE,161,4.0,14.0,82,0.00,,SKC,0.08,VWS V13.00,2013-06-24 01:08:00,
2013-06-23 21:13:00,77.5,71.6,30.22,SSW,213,3.0,10.0,82,0.00,,SKC,0.08,VWS V13.00,2013-06-24 01:13:00,
2013-06-23 21:18:00,77.7,71.8,30.22,SSE,147,4.0,16.0,82,0.00,,SKC,0.08,VWS V13.00,2013-06-24 01:18:00,
2013-06-23 21:23:00,77.8,71.9,30.21,SSW,199,7.0,9.0,82,0.00,,SKC,0.08,VWS V13.00,2013-06-24 01:23:00,
2013-06-23 21:28:00,77.9,72.0,30.21,South,169,2.0,9.0,82,0.00,,SKC,0.08,VWS V13.00,2013-06-24 01:28:00,
2013-06-23 21:33:00,78.0,72.1,30.21,SE,139,5.0,13.0,82,0.00,,SKC,0.08,VWS V13.00,2013-06-24 01:33:00,
2013-06-23 21:38:00,78.0,72.1,30.21,SSW,202,5.0,11.0,82,0.00,,SKC,0.08,VWS V13.00,2013-06-24 01:38:00,
2013-06-23 21:43:00,77.9,72.0,30.21,SSW,192,6.0,11.0,82,0.00,,SKC,0.08,VWS V13.00,2013-06-24 01:43:00,
2013-06-23 21:48:00,77.9,72.0,30.21,South,184,4.0,11.0,82,0.00,,SKC,0.08,VWS V13.00,2013-06-24 01:48:00,
2013-06-23 21:53:00,77.8,71.9,30.22,SSW,212,5.0,10.0,82,0.00,,SKC,0.08,VWS V13.00,2013-06-24 01:53:00,
2013-06-23 21:58:00,77.8,71.9,30.22,WSW,248,5.0,10.0,82,0.00,,SKC,0.08,VWS V13.00,2013-06-24 01:58:00,
2013-06-23 22:03:00,77.7,71.8,30.22,SSW,202,9.0,9.0,82,0.00,,SKC,0.08,VWS V13.00,2013-06-24 02:03:00,
2013-06-23 22:08:00,77.7,71.8,30.22,SSW,200,12.0,12.0,82,0.00,,SKC,0.08,VWS V13.00,2013-06-24 02:08:00,
2013-06-23 22:13:00,77.6,71.7,30.22,SSW,212,8.0,11.0,82,0.00,,SKC,0.08,VWS V13.00,2013-06-24 02:13:00,
2013-06-23 22:18:00,77.6,71.7,30.22,SSW,211,14.0,17.0,82,0.00,,SKC,0.08,VWS V13.00,2013-06-24 02:18:00,
2013-06-23 22:23:00,77.5,71.6,30.22,SSW,198,10.0,13.0,82,0.00,,SKC,0.08,VWS V13.00,2013-06-24 02:23:00,
2013-06-23 22:28:00,77.5,71.6,30.22,SSW,213,10.0,11.0,82,0.00,,SKC,0.08,VWS V13.00,2013-06-24 02:28:00,
2013-06-23 22:33:00,77.5,71.6,30.23,SSW,204,5.0,10.0,82,0.00,,SKC,0.08,VWS V13.00,2013-06-24 02:33:00,
2013-06-23 22:38:00,77.5,71.6,30.22,SSW,213,7.0,9.0,82,0.00,,SKC,0.08,VWS V13.00,2013-06-24 02:38:00,
2013-06-23 22:43:00,77.5,71.6,30.22,South,169,5.0,13.0,82,0.00,,SKC,0.08,VWS V13.00,2013-06-24 02:43:00,
2013-06-23 22:48:00,77.5,71.6,30.22,South,184,8.0,8.0,82,0.00,,SKC,0.08,VWS V13.00,2013-06-24 02:48:00,
2013-06-23 22:53:00,77.4,71.5,30.22,SSE,158,6.0,12.0,82,0.00,,SKC,0.08,VWS V13.00,2013-06-24 02:53:00,
2013-06-23 22:58:00,77.3,71.4,30.22,SSE,150,6.0,14.0,82,0.00,,SKC,0.08,VWS V13.00,2013-06-24 02:58:00,
2013-06-23 23:03:00,77.3,71.4,30.22,SW,225,6.0,8.0,82,0.00,,SKC,0.08,VWS V13.00,2013-06-24 03:03:00,
2013-06-23 23:08:00,77.3,71.4,30.22,West,260,7.0,11.0,82,0.00,,SKC,0.08,VWS V13.00,2013-06-24 03:08:00,
2013-06-23 23:13:00,77.3,71.4,30.22,SSW,207,12.0,13.0,82,0.00,,SKC,0.08,VWS V13.00,2013-06-24 03:13:00,
2013-06-23 23:18:00,77.2,71.3,30.22,SW,221,5.0,9.0,82,0.00,,SKC,0.08,VWS V13.00,2013-06-24 03:18:00,
2013-06-23 23:23:00,77.2,71.3,30.22,SSW,209,6.0,14.0,82,0.00,,SKC,0.08,VWS V13.00,2013-06-24 03:23:00,
2013-06-23 23:28:00,77.1,71.2,30.22,SW,217,9.0,9.0,82,0.00,,SKC,0.08,VWS V13.00,2013-06-24 03:28:00,
2013-06-23 23:33:00,77.2,71.3,30.21,SW,233,8.0,9.0,82,0.00,,SKC,0.08,VWS V13.00,2013-06-24 03:33:00,
2013-06-23 23:38:00,77.3,71.4,30.22,SW,217,6.0,9.0,82,0.00,,SKC,0.08,VWS V13.00,2013-06-24 03:38:00,
2013-06-23 23:43:00,77.3,71.4,30.22,SSW,208,3.0,6.0,82,0.00,,SKC,0.08,VWS V13.00,2013-06-24 03:43:00,
2013-06-23 23:48:00,77.3,71.4,30.21,WSW,250,5.0,10.0,82,0.00,,SKC,0.08,VWS V13.00,2013-06-24 03:48:00,
2013-06-23 23:53:00,77.3,71.4,30.21,SSW,199,5.0,11.0,82,0.00,,SKC,0.08,VWS V13.00,2013-06-24 03:53:00,
2013-06-23 23:58:00,77.3,71.4,30.21,SW,217,5.0,9.0,82,0.00,,SKC,0.08,VWS V13.00,2013-06-24 03:58:00,